This is the latest recevied weather packets stored in our database for station/object EFTP. If no packets are shown the sender has not sent any weather packets the latest 10 day(s).
| Time | Temp. | Humidity | Pressure | Rain* | Wind** | Luminosity | Snow |
|---|---|---|---|---|---|---|---|
| 1778020040 | 1.67° C | 78% | 1007.8 hPa | - | - | - | - |
| 1778018841 | 2.22° C | 74% | 1007.7 hPa | - | - | - | - |
| 1778016441 | 2.78° C | 68% | 1007.6 hPa | - | - | - | - |
| 1778015240 | 2.78° C | 65% | 1007.4 hPa | - | - | - | - |
| 1778012841 | 3.89° C | 60% | 1007 hPa | - | - | - | - |
| 1778011640 | 3.89° C | 60% | 1006.9 hPa | - | - | - | - |
| 1778009240 | 4.44° C | 54% | 1006.8 hPa | - | - | - | - |
| 1778008040 | 5° C | 52% | 1006.6 hPa | - | - | - | - |
| 1778005640 | 5.56° C | 46% | 1006 hPa | - | - | - | - |
| 1778004440 | 6.11° C | 46% | 1005.8 hPa | - | - | - | - |
| 1778002039 | 6.67° C | 46% | 1005.5 hPa | - | - | - | - |
| 1778000839 | 7.22° C | 46% | 1005.4 hPa | - | - | - | - |
| 1777993639 | 8.33° C | 41% | 1004.6 hPa | - | - | - | - |
| 1777991239 | 8.33° C | 38% | 1004.4 hPa | - | - | - | - |
| 1777990039 | 8.89° C | 40% | 1004.2 hPa | - | - | - | - |
| 1777988839 | 9.44° C | 40% | 1004.3 hPa | - | - | - | - |
| 1777987638 | 8.33° C | 40% | 1004.1 hPa | - | - | - | - |
| 1777984038 | 8.89° C | 42% | 1003.8 hPa | - | - | - | - |
| 1777979238 | 7.78° C | 48% | 1003.2 hPa | - | - | - | - |
| 1777976838 | 7.22° C | 48% | 1002.8 hPa | - | - | - | - |
| 1777975638 | 7.78° C | 52% | 1002.6 hPa | - | - | - | - |
| 1777974437 | 6.11° C | 63% | 1002.6 hPa | - | - | - | - |
| 1777973237 | 5.56° C | 67% | 1002.5 hPa | - | - | - | - |
| 1777972037 | 6.11° C | 66% | 1002.3 hPa | - | - | - | - |
| 1777970838 | 5.56° C | 70% | 1002.2 hPa | - | - | - | - |
* Rain since midnight (hover to see other rain measurements)
** Current wind speed in m/s (hover to see current wind gust speed)